createdAt,value
2022-09-16T00:00:50.681Z,977.078
2022-09-16T00:02:49.882Z,977.142
2022-09-16T00:04:50.386Z,977.128
2022-09-16T00:06:49.891Z,977.077
2022-09-16T00:08:49.879Z,977.049
2022-09-16T00:10:50.668Z,976.988
2022-09-16T00:12:50.499Z,977.016
2022-09-16T00:14:50.402Z,977.042
2022-09-16T00:16:50.645Z,977.020
2022-09-16T00:18:50.576Z,977.012
2022-09-16T00:20:50.462Z,977.085
2022-09-16T00:22:50.239Z,977.092
2022-09-16T00:24:50.103Z,977.115
2022-09-16T00:26:50.400Z,977.094
2022-09-16T00:28:50.538Z,977.087
2022-09-16T00:30:50.698Z,977.113
2022-09-16T00:32:50.732Z,977.131
2022-09-16T00:34:50.251Z,977.153
2022-09-16T00:36:50.413Z,977.159
2022-09-16T00:38:50.614Z,977.165
2022-09-16T00:40:50.434Z,977.171
2022-09-16T00:42:50.390Z,977.156
2022-09-16T00:44:50.424Z,977.156
2022-09-16T00:46:50.576Z,977.114
2022-09-16T00:48:50.558Z,977.108
2022-09-16T00:50:50.449Z,977.081
2022-09-16T00:52:50.326Z,977.048
2022-09-16T00:54:50.276Z,977.009
2022-09-16T00:56:50.561Z,977.044
2022-09-16T00:58:50.404Z,977.028
2022-09-16T01:00:50.607Z,977.055
2022-09-16T01:02:49.807Z,977.043
2022-09-16T01:04:50.196Z,977.069
2022-09-16T01:06:50.328Z,977.072
2022-09-16T01:08:50.175Z,977.009
2022-09-16T01:10:50.217Z,977.034
2022-09-16T01:12:50.093Z,976.967
2022-09-16T01:14:50.077Z,976.988
2022-09-16T01:16:50.225Z,976.993
2022-09-16T01:18:50.198Z,977.001
2022-09-16T01:20:49.961Z,977.001
2022-09-16T01:22:49.894Z,977.027
2022-09-16T01:24:49.875Z,977.023
2022-09-16T01:26:50.156Z,977.089
2022-09-16T01:28:50.021Z,977.067
2022-09-16T01:30:50.089Z,977.039
2022-09-16T01:32:49.940Z,977.021
2022-09-16T01:34:50.312Z,977.036
2022-09-16T01:36:50.655Z,976.993
2022-09-16T01:38:50.627Z,976.986
2022-09-16T01:40:50.430Z,977.054
2022-09-16T01:42:50.175Z,976.952
2022-09-16T01:44:50.048Z,976.951
2022-09-16T01:46:50.518Z,976.947
2022-09-16T01:48:54.158Z,976.943
2022-09-16T01:50:50.048Z,976.984
2022-09-16T01:52:49.885Z,977.045
2022-09-16T01:54:49.890Z,976.990
2022-09-16T01:56:49.968Z,977.007
2022-09-16T01:58:50.710Z,977.035
2022-09-16T02:00:50.506Z,976.997
2022-09-16T02:02:50.575Z,976.982
2022-09-16T02:04:50.218Z,976.927
2022-09-16T02:06:50.578Z,976.975
2022-09-16T02:08:50.742Z,976.932
2022-09-16T02:10:50.631Z,976.856
2022-09-16T02:12:50.521Z,976.882
2022-09-16T02:14:50.634Z,976.881
2022-09-16T02:16:50.739Z,976.855
2022-09-16T02:18:50.601Z,976.923
2022-09-16T02:20:50.544Z,976.935
2022-09-16T02:22:50.188Z,976.964
2022-09-16T02:24:49.855Z,976.967
2022-09-16T02:26:49.929Z,977.019
2022-09-16T02:28:50.703Z,976.986
2022-09-16T02:30:50.697Z,977.026
2022-09-16T02:32:50.656Z,977.015
2022-09-16T02:34:50.192Z,976.989
2022-09-16T02:36:50.468Z,977.005
2022-09-16T02:38:50.433Z,977.043
2022-09-16T02:40:50.470Z,977.016
2022-09-16T02:42:50.297Z,976.995
2022-09-16T02:44:50.037Z,976.977
2022-09-16T02:46:50.477Z,977.013
2022-09-16T02:48:50.381Z,977.053
2022-09-16T02:50:50.278Z,977.000
2022-09-16T02:52:50.015Z,977.005
2022-09-16T02:54:49.844Z,976.999
2022-09-16T02:56:50.060Z,977.030
2022-09-16T02:58:49.887Z,976.984
2022-09-16T03:00:50.778Z,977.021
2022-09-16T03:02:50.865Z,977.002
2022-09-16T03:04:50.665Z,976.981
2022-09-16T03:06:49.817Z,976.863
2022-09-16T03:08:50.790Z,976.882
2022-09-16T03:10:50.685Z,976.898
2022-09-16T03:12:50.689Z,976.917
2022-09-16T03:14:50.626Z,976.893
2022-09-16T03:16:49.935Z,976.926
2022-09-16T03:18:50.712Z,976.951
2022-09-16T03:20:50.710Z,976.979
2022-09-16T03:22:50.546Z,976.976
2022-09-16T03:24:50.454Z,976.926
2022-09-16T03:26:50.773Z,976.914
2022-09-16T03:28:50.477Z,976.877
2022-09-16T03:30:50.579Z,976.907
2022-09-16T03:32:50.576Z,976.896
2022-09-16T03:34:49.887Z,976.883
2022-09-16T03:36:49.840Z,976.872
2022-09-16T03:38:50.563Z,976.934
2022-09-16T03:40:50.339Z,976.901
2022-09-16T03:42:50.121Z,976.914
2022-09-16T03:44:49.949Z,976.862
2022-09-16T03:46:50.017Z,976.898
2022-09-16T03:48:49.861Z,976.916
2022-09-16T03:50:49.785Z,976.846
2022-09-16T03:52:50.548Z,976.821
2022-09-16T03:54:50.391Z,976.880
2022-09-16T03:56:50.530Z,976.886
2022-09-16T03:58:50.438Z,976.873
2022-09-16T04:00:50.532Z,976.897
2022-09-16T04:02:50.617Z,976.878
2022-09-16T04:04:50.402Z,976.863
2022-09-16T04:06:50.542Z,976.839
2022-09-16T04:08:50.368Z,976.792
2022-09-16T04:10:50.203Z,976.769
2022-09-16T04:12:49.941Z,976.775
2022-09-16T04:14:49.785Z,976.781
2022-09-16T04:16:49.927Z,976.766
2022-09-16T04:18:49.868Z,976.782
2022-09-16T04:20:49.773Z,976.794
2022-09-16T04:22:50.598Z,976.748
2022-09-16T04:24:50.548Z,976.747
2022-09-16T04:26:49.968Z,976.747
2022-09-16T04:28:50.694Z,976.729
2022-09-16T04:30:50.819Z,976.714
2022-09-16T04:32:49.912Z,976.710
2022-09-16T04:34:50.231Z,976.677
2022-09-16T04:36:50.338Z,976.663
2022-09-16T04:38:50.400Z,976.641
2022-09-16T04:40:50.488Z,976.644
2022-09-16T04:42:50.431Z,976.681
2022-09-16T04:44:50.435Z,976.721
2022-09-16T04:46:49.866Z,976.747
2022-09-16T04:48:49.907Z,976.683
2022-09-16T04:50:50.696Z,976.666
2022-09-16T04:52:50.630Z,976.551
2022-09-16T04:54:50.628Z,976.455
2022-09-16T04:56:50.020Z,976.392
2022-09-16T04:58:49.963Z,976.568
2022-09-16T05:00:49.836Z,976.695
2022-09-16T05:02:50.649Z,976.678
2022-09-16T05:04:49.977Z,976.681
2022-09-16T05:06:50.329Z,976.571
2022-09-16T05:08:50.235Z,976.661
2022-09-16T05:10:50.141Z,976.734
2022-09-16T05:12:50.038Z,976.800
2022-09-16T05:14:49.836Z,976.776
2022-09-16T05:16:50.109Z,976.693
2022-09-16T05:18:50.168Z,976.752
2022-09-16T05:20:50.211Z,976.766
2022-09-16T05:22:50.331Z,976.758
2022-09-16T05:24:50.439Z,976.774
2022-09-16T05:26:50.683Z,976.878
2022-09-16T05:28:50.492Z,976.884
2022-09-16T05:30:50.651Z,976.957
2022-09-16T05:32:50.728Z,976.984
2022-09-16T05:34:49.963Z,976.977
2022-09-16T05:36:50.182Z,976.936
2022-09-16T05:39:23.039Z,976.804
2022-09-16T05:40:50.171Z,976.931
2022-09-16T05:42:49.938Z,976.912
2022-09-16T05:44:49.835Z,976.893
2022-09-16T05:46:49.972Z,976.955
2022-09-16T05:48:49.879Z,976.916
2022-09-16T05:50:49.833Z,976.990
2022-09-16T05:52:50.683Z,977.023
2022-09-16T05:54:49.886Z,977.000
2022-09-16T05:56:50.200Z,977.022
2022-09-16T05:58:49.951Z,977.010
2022-09-16T06:00:49.785Z,976.967
2022-09-16T06:02:50.061Z,977.019
2022-09-16T06:04:50.576Z,977.092
2022-09-16T06:06:50.596Z,977.129
2022-09-16T06:08:49.890Z,977.079
2022-09-16T06:10:49.804Z,977.042
2022-09-16T06:12:50.707Z,977.017
2022-09-16T06:14:50.555Z,977.047
2022-09-16T06:16:50.620Z,977.054
2022-09-16T06:18:50.568Z,977.066
2022-09-16T06:20:50.690Z,977.014
2022-09-16T06:22:50.507Z,977.061
2022-09-16T06:24:50.493Z,976.976
2022-09-16T06:26:50.770Z,977.033
2022-09-16T06:28:50.725Z,977.008
2022-09-16T06:30:50.633Z,977.016
2022-09-16T06:32:50.631Z,976.994
2022-09-16T06:34:50.175Z,976.978
2022-09-16T06:36:50.324Z,976.978
2022-09-16T06:38:50.439Z,977.018
2022-09-16T06:40:50.214Z,976.975
2022-09-16T06:42:50.006Z,976.940
2022-09-16T06:44:49.886Z,976.985
2022-09-16T06:46:50.108Z,976.936
2022-09-16T06:48:49.997Z,976.991
2022-09-16T06:50:49.824Z,976.976
2022-09-16T06:52:50.641Z,977.013
2022-09-16T06:54:50.460Z,977.003
2022-09-16T06:56:49.813Z,976.989
2022-09-16T06:58:50.661Z,976.985
2022-09-16T07:00:50.758Z,976.984
2022-09-16T07:02:50.714Z,977.067
2022-09-16T07:04:50.256Z,977.051
2022-09-16T07:07:10.818Z,977.070
2022-09-16T07:08:50.025Z,977.041
2022-09-16T07:10:49.822Z,977.095
2022-09-16T07:12:50.644Z,977.014
2022-09-16T07:14:50.605Z,976.990
2022-09-16T07:16:49.965Z,976.997
2022-09-16T07:18:49.923Z,976.978
2022-09-16T07:20:50.670Z,977.001
2022-09-16T07:22:50.001Z,976.986
2022-09-16T07:24:50.028Z,977.122
2022-09-16T07:26:50.274Z,977.033
2022-09-16T07:28:49.970Z,977.111
2022-09-16T07:30:50.136Z,977.101
2022-09-16T07:32:50.382Z,977.076
2022-09-16T07:34:49.880Z,977.167
2022-09-16T07:36:50.221Z,977.132
2022-09-16T07:38:50.187Z,977.055
2022-09-16T07:40:50.303Z,977.143
2022-09-16T07:42:50.123Z,977.112
2022-09-16T07:44:49.905Z,977.067
2022-09-16T07:46:50.172Z,977.088
2022-09-16T07:48:50.262Z,977.134
2022-09-16T07:50:50.136Z,977.113
2022-09-16T07:52:49.825Z,977.067
2022-09-16T07:54:50.600Z,977.079
2022-09-16T07:56:50.740Z,977.097
2022-09-16T07:58:50.496Z,977.132
2022-09-16T08:00:50.352Z,977.180
2022-09-16T08:02:50.613Z,977.212
2022-09-16T08:04:50.216Z,977.100
2022-09-16T08:06:50.688Z,977.127
2022-09-16T08:08:50.527Z,977.133
2022-09-16T08:10:50.576Z,977.089
2022-09-16T08:12:50.480Z,977.113
2022-09-16T08:14:50.383Z,977.160
2022-09-16T08:16:50.880Z,977.180
2022-09-16T08:18:50.177Z,977.175
2022-09-16T08:20:49.985Z,977.162
2022-09-16T08:22:58.178Z,977.219
2022-09-16T08:24:50.083Z,977.206
2022-09-16T08:26:50.482Z,977.314
2022-09-16T08:29:10.582Z,977.277
2022-09-16T08:30:53.575Z,977.325
2022-09-16T08:32:50.603Z,977.185
2022-09-16T08:34:50.259Z,977.213
2022-09-16T08:36:50.548Z,977.258
2022-09-16T08:38:50.466Z,977.305
2022-09-16T08:40:50.354Z,977.347
2022-09-16T08:42:50.216Z,977.377
2022-09-16T08:44:50.049Z,977.368
2022-09-16T08:46:50.210Z,977.358
2022-09-16T08:48:49.974Z,977.352
2022-09-16T08:50:50.144Z,977.407
2022-09-16T08:52:49.986Z,977.274
2022-09-16T08:54:50.026Z,977.263
2022-09-16T08:56:50.350Z,977.274
2022-09-16T08:58:50.273Z,977.372
2022-09-16T09:00:50.569Z,977.316
2022-09-16T09:02:50.856Z,977.254
2022-09-16T09:04:50.665Z,977.282
2022-09-16T09:06:50.053Z,977.284
2022-09-16T09:08:50.748Z,977.245
2022-09-16T09:10:50.732Z,977.221
2022-09-16T09:12:54.404Z,977.200
2022-09-16T09:14:49.928Z,977.298
2022-09-16T09:16:50.500Z,977.293
2022-09-16T09:18:49.880Z,977.262
2022-09-16T09:20:50.690Z,977.146
2022-09-16T09:22:50.644Z,977.299
2022-09-16T09:24:57.235Z,977.342
2022-09-16T09:26:50.427Z,977.187
2022-09-16T09:28:50.407Z,977.181
2022-09-16T09:30:50.202Z,977.176
2022-09-16T09:32:50.431Z,977.255
2022-09-16T09:34:50.722Z,977.133
2022-09-16T09:36:49.851Z,977.131
2022-09-16T09:38:49.887Z,977.129
2022-09-16T09:40:50.656Z,977.086
2022-09-16T09:42:50.678Z,977.078
2022-09-16T09:44:50.550Z,977.151
2022-09-16T09:46:50.801Z,977.149
2022-09-16T09:48:50.677Z,977.177
2022-09-16T09:50:50.433Z,977.144
2022-09-16T09:52:50.303Z,977.165
2022-09-16T09:54:50.129Z,977.059
2022-09-16T09:56:50.536Z,977.066
2022-09-16T09:58:50.467Z,977.070
2022-09-16T10:00:50.539Z,977.095
2022-09-16T10:02:50.635Z,977.161
2022-09-16T10:04:50.141Z,977.222
2022-09-16T10:06:50.324Z,977.157
2022-09-16T10:08:50.436Z,977.145
2022-09-16T10:10:50.383Z,977.098
2022-09-16T10:12:50.663Z,977.197
2022-09-16T10:14:50.603Z,977.197
2022-09-16T10:16:50.208Z,977.107
2022-09-16T10:18:50.273Z,977.088
2022-09-16T10:20:50.144Z,977.107
2022-09-16T10:22:50.157Z,977.070
2022-09-16T10:24:50.073Z,977.067
2022-09-16T10:26:50.372Z,977.057
2022-09-16T10:28:50.251Z,977.049
2022-09-16T10:30:50.206Z,976.961
2022-09-16T10:32:50.032Z,976.967
2022-09-16T10:34:50.404Z,976.970
2022-09-16T10:36:50.752Z,976.927
2022-09-16T10:38:50.400Z,976.918
2022-09-16T10:40:50.335Z,976.950
2022-09-16T10:42:50.181Z,976.863
2022-09-16T10:44:50.287Z,976.786
2022-09-16T10:46:50.511Z,976.804
2022-09-16T10:48:50.542Z,976.861
2022-09-16T10:50:50.446Z,976.816
2022-09-16T10:52:50.228Z,976.784
2022-09-16T10:54:50.318Z,976.860
2022-09-16T10:56:49.981Z,976.885
2022-09-16T10:58:50.085Z,976.816
2022-09-16T11:00:50.197Z,976.867
2022-09-16T11:02:50.288Z,976.899
2022-09-16T11:04:50.744Z,976.818
2022-09-16T11:06:49.961Z,976.823
2022-09-16T11:08:49.897Z,976.807
2022-09-16T11:10:50.709Z,976.796
2022-09-16T11:12:50.526Z,976.837
2022-09-16T11:14:50.357Z,976.823
2022-09-16T11:16:50.645Z,976.934
2022-09-16T11:18:53.306Z,976.900
2022-09-16T11:20:50.310Z,976.881
2022-09-16T11:22:50.253Z,976.961
2022-09-16T11:24:50.090Z,976.934
2022-09-16T11:26:50.315Z,976.936
2022-09-16T11:28:50.027Z,976.950
2022-09-16T11:30:50.785Z,976.921
2022-09-16T11:32:50.997Z,976.954
2022-09-16T11:34:49.898Z,976.926
2022-09-16T11:36:50.087Z,976.948
2022-09-16T11:38:49.906Z,976.935
2022-09-16T11:40:50.838Z,976.972
2022-09-16T11:42:50.780Z,976.956
2022-09-16T11:44:50.774Z,976.914
2022-09-16T11:46:50.174Z,976.944
2022-09-16T11:48:50.169Z,976.957
2022-09-16T11:50:50.123Z,976.825
2022-09-16T11:52:51.092Z,976.782
2022-09-16T11:54:50.529Z,976.836
2022-09-16T11:56:50.646Z,976.876
2022-09-16T11:58:50.533Z,976.873
2022-09-16T12:00:50.560Z,976.887
2022-09-16T12:02:50.706Z,976.843
2022-09-16T12:04:50.249Z,976.867
2022-09-16T12:06:50.490Z,976.790
2022-09-16T12:08:50.455Z,976.798
2022-09-16T12:10:50.433Z,976.702
2022-09-16T12:12:50.353Z,976.613
2022-09-16T12:14:50.379Z,976.649
2022-09-16T12:16:50.690Z,976.733
2022-09-16T12:18:50.665Z,976.620
2022-09-16T12:20:50.560Z,976.641
2022-09-16T12:22:50.594Z,976.647
2022-09-16T12:24:50.548Z,976.620
2022-09-16T12:26:49.812Z,976.611
2022-09-16T12:28:49.788Z,976.603
2022-09-16T12:30:50.729Z,976.609
2022-09-16T12:32:49.832Z,976.615
2022-09-16T12:34:50.408Z,976.581
2022-09-16T12:36:50.608Z,976.584
2022-09-16T12:38:50.571Z,976.643
2022-09-16T12:40:50.615Z,976.609
2022-09-16T12:42:50.654Z,976.543
2022-09-16T12:44:50.605Z,976.501
2022-09-16T12:46:50.136Z,976.536
2022-09-16T12:48:50.294Z,976.528
2022-09-16T12:50:50.309Z,976.481
2022-09-16T12:52:50.059Z,976.480
2022-09-16T12:55:09.218Z,976.383
2022-09-16T12:56:50.261Z,976.343
2022-09-16T12:58:50.341Z,976.300
2022-09-16T13:00:50.344Z,976.313
2022-09-16T13:02:50.496Z,976.323
2022-09-16T13:04:50.083Z,976.361
2022-09-16T13:06:50.446Z,976.351
2022-09-16T13:08:50.402Z,976.441
2022-09-16T13:11:51.328Z,976.371
2022-09-16T13:12:50.279Z,976.355
2022-09-16T13:14:50.236Z,976.357
2022-09-16T13:16:50.565Z,976.253
2022-09-16T13:18:50.362Z,976.189
2022-09-16T13:20:50.044Z,976.162
2022-09-16T13:22:49.960Z,976.178
2022-09-16T13:24:50.032Z,976.150
2022-09-16T13:26:50.260Z,976.126
2022-09-16T13:28:50.285Z,976.133
2022-09-16T13:30:50.407Z,976.145
2022-09-16T13:32:50.578Z,976.159
2022-09-16T13:34:49.998Z,976.144
2022-09-16T13:36:50.267Z,976.145
2022-09-16T13:38:50.143Z,976.133
2022-09-16T13:40:50.133Z,976.176
2022-09-16T13:42:50.266Z,976.166
2022-09-16T13:44:49.919Z,976.108
2022-09-16T13:46:50.155Z,976.207
2022-09-16T13:48:50.190Z,976.236
2022-09-16T13:50:50.166Z,976.227
2022-09-16T13:52:49.982Z,976.184
2022-09-16T13:55:11.243Z,976.182
2022-09-16T13:56:50.715Z,976.131
2022-09-16T13:58:50.693Z,976.097
2022-09-16T14:00:50.508Z,976.092
2022-09-16T14:02:51.002Z,976.039
2022-09-16T14:04:50.728Z,976.050
2022-09-16T14:06:49.956Z,976.017
2022-09-16T14:08:52.057Z,976.016
2022-09-16T14:10:49.922Z,976.069
2022-09-16T14:12:49.886Z,976.032
2022-09-16T14:14:50.665Z,976.093
2022-09-16T14:16:49.997Z,976.004
2022-09-16T14:18:49.885Z,975.985
2022-09-16T14:20:49.898Z,975.945
2022-09-16T14:22:50.735Z,975.946
2022-09-16T14:25:19.463Z,975.962
2022-09-16T14:26:49.937Z,975.937
2022-09-16T14:28:50.095Z,975.895
2022-09-16T14:30:50.421Z,975.877
2022-09-16T14:32:50.515Z,975.873
2022-09-16T14:34:50.032Z,975.857
2022-09-16T14:36:50.202Z,975.862
2022-09-16T14:38:50.205Z,975.831
2022-09-16T14:40:50.378Z,975.810
2022-09-16T14:42:50.264Z,975.841
2022-09-16T14:44:50.073Z,975.894
2022-09-16T14:46:50.409Z,975.876
2022-09-16T14:48:50.370Z,975.905
2022-09-16T14:50:50.328Z,975.914
2022-09-16T14:52:50.071Z,975.966
2022-09-16T14:54:50.011Z,975.829
2022-09-16T14:56:50.253Z,975.882
2022-09-16T14:58:50.061Z,975.846
2022-09-16T15:00:49.858Z,975.847
2022-09-16T15:02:50.839Z,975.892
2022-09-16T15:04:50.316Z,975.770
2022-09-16T15:06:50.681Z,975.905
2022-09-16T15:08:50.600Z,975.877
2022-09-16T15:11:00.704Z,975.884
2022-09-16T15:12:50.570Z,975.942
2022-09-16T15:14:50.296Z,975.875
2022-09-16T15:16:50.389Z,975.845
2022-09-16T15:18:50.331Z,975.854
2022-09-16T15:20:50.457Z,975.824
2022-09-16T15:22:50.403Z,975.794
2022-09-16T15:24:50.310Z,975.805
2022-09-16T15:26:50.471Z,975.856
2022-09-16T15:28:50.482Z,975.872
2022-09-16T15:30:50.482Z,975.913
2022-09-16T15:32:50.711Z,975.824
2022-09-16T15:34:50.199Z,975.881
2022-09-16T15:36:50.401Z,975.863
2022-09-16T15:38:50.474Z,975.913
2022-09-16T15:40:50.380Z,975.879
2022-09-16T15:42:50.053Z,975.865
2022-09-16T15:44:49.903Z,975.882
2022-09-16T15:46:50.119Z,975.916
2022-09-16T15:48:50.039Z,975.933
2022-09-16T15:50:50.063Z,975.947
2022-09-16T15:52:50.090Z,975.952
2022-09-16T15:54:50.137Z,975.958
2022-09-16T15:56:50.423Z,975.950
2022-09-16T15:58:50.233Z,975.944
2022-09-16T16:00:50.276Z,975.940
2022-09-16T16:02:50.318Z,975.949
2022-09-16T16:04:49.871Z,975.987
2022-09-16T16:06:50.224Z,975.959
2022-09-16T16:08:49.933Z,976.068
2022-09-16T16:10:49.893Z,976.088
2022-09-16T16:12:50.765Z,976.136
2022-09-16T16:14:49.790Z,976.208
2022-09-16T16:17:14.043Z,976.401
2022-09-16T16:18:49.968Z,976.654
2022-09-16T16:20:50.037Z,976.236
2022-09-16T16:22:51.068Z,976.503
2022-09-16T16:24:50.048Z,976.459
2022-09-16T16:26:57.090Z,976.424
2022-09-16T16:28:49.960Z,976.330
2022-09-16T16:30:50.125Z,976.376
2022-09-16T16:32:50.372Z,976.352
2022-09-16T16:34:50.519Z,976.401
2022-09-16T16:36:50.731Z,976.356
2022-09-16T16:38:50.749Z,976.396
2022-09-16T16:40:50.484Z,976.412
2022-09-16T16:42:50.485Z,976.476
2022-09-16T16:44:50.342Z,976.442
2022-09-16T16:46:50.665Z,976.395
2022-09-16T16:48:50.557Z,976.403
2022-09-16T16:50:50.351Z,976.394
2022-09-16T16:52:50.289Z,976.382
2022-09-16T16:54:50.193Z,976.413
2022-09-16T16:56:50.270Z,976.430
2022-09-16T16:58:50.008Z,976.415
2022-09-16T17:00:50.749Z,976.436
2022-09-16T17:02:50.965Z,976.452
2022-09-16T17:04:50.708Z,976.490
2022-09-16T17:07:26.035Z,976.498
2022-09-16T17:08:50.427Z,976.498
2022-09-16T17:10:50.579Z,976.532
2022-09-16T17:12:50.516Z,976.586
2022-09-16T17:14:50.307Z,976.616
2022-09-16T17:16:50.681Z,976.602
2022-09-16T17:18:50.620Z,976.633
2022-09-16T17:20:50.704Z,976.582
2022-09-16T17:22:50.533Z,976.646
2022-09-16T17:24:50.409Z,976.580
2022-09-16T17:26:50.717Z,976.662
2022-09-16T17:28:50.642Z,976.700
2022-09-16T17:30:50.725Z,976.732
2022-09-16T17:32:49.869Z,976.758
2022-09-16T17:34:50.202Z,976.803
2022-09-16T17:36:50.680Z,976.823
2022-09-16T17:38:50.520Z,976.806
2022-09-16T17:40:50.400Z,976.889
2022-09-16T17:42:50.269Z,976.859
2022-09-16T17:44:50.317Z,976.857
2022-09-16T17:46:50.584Z,976.909
2022-09-16T17:48:50.558Z,976.902
2022-09-16T17:50:50.501Z,976.935
2022-09-16T17:52:50.305Z,976.911
2022-09-16T17:54:50.236Z,976.938
2022-09-16T17:56:50.485Z,976.893
2022-09-16T17:58:50.329Z,976.905
2022-09-16T18:00:50.143Z,976.937
2022-09-16T18:02:50.309Z,977.001
2022-09-16T18:04:50.913Z,977.008
2022-09-16T18:06:50.103Z,977.003
2022-09-16T18:08:50.019Z,976.944
2022-09-16T18:10:49.853Z,976.977
2022-09-16T18:12:49.937Z,977.009
2022-09-16T18:14:49.829Z,976.986
2022-09-16T18:16:50.263Z,976.956
2022-09-16T18:18:50.385Z,976.986
2022-09-16T18:20:50.254Z,976.997
2022-09-16T18:22:50.277Z,976.984
2022-09-16T18:24:50.193Z,977.018
2022-09-16T18:26:50.256Z,977.009
2022-09-16T18:29:11.450Z,976.989
2022-09-16T18:30:50.850Z,976.990
2022-09-16T18:32:50.049Z,977.003
2022-09-16T18:34:50.469Z,976.987
2022-09-16T18:36:50.564Z,977.005
2022-09-16T18:38:50.493Z,977.061
2022-09-16T18:40:50.343Z,977.102
2022-09-16T18:42:50.523Z,977.149
2022-09-16T18:44:50.493Z,977.174
2022-09-16T18:46:50.636Z,977.119
2022-09-16T18:48:50.495Z,977.131
2022-09-16T18:50:50.307Z,977.130
2022-09-16T18:52:50.284Z,977.202
2022-09-16T18:54:50.228Z,977.158
2022-09-16T18:56:50.497Z,977.139
2022-09-16T18:59:20.842Z,977.160
2022-09-16T19:00:50.949Z,977.094
2022-09-16T19:02:50.442Z,977.145
2022-09-16T19:04:50.747Z,977.145
2022-09-16T19:06:49.904Z,977.157
2022-09-16T19:08:50.690Z,977.132
2022-09-16T19:10:50.682Z,977.136
2022-09-16T19:12:50.432Z,977.133
2022-09-16T19:14:50.225Z,977.083
2022-09-16T19:16:50.695Z,977.077
2022-09-16T19:18:50.604Z,977.061
2022-09-16T19:20:50.632Z,977.051
2022-09-16T19:22:50.541Z,977.073
2022-09-16T19:24:50.346Z,977.105
2022-09-16T19:26:50.575Z,977.113
2022-09-16T19:28:50.527Z,977.081
2022-09-16T19:30:50.385Z,977.122
2022-09-16T19:32:50.512Z,977.118
2022-09-16T19:34:50.255Z,977.170
2022-09-16T19:36:50.757Z,977.190
2022-09-16T19:38:50.599Z,977.205
2022-09-16T19:40:50.460Z,977.233
2022-09-16T19:42:50.412Z,977.306
2022-09-16T19:44:50.361Z,977.282
2022-09-16T19:46:50.759Z,977.331
2022-09-16T19:48:50.787Z,977.342
2022-09-16T19:50:50.536Z,977.383
2022-09-16T19:52:50.387Z,977.502
2022-09-16T19:54:50.273Z,977.430
2022-09-16T19:56:51.437Z,977.471
2022-09-16T19:58:50.506Z,977.446
2022-09-16T20:00:56.867Z,977.406
2022-09-16T20:02:51.021Z,977.417
2022-09-16T20:04:50.629Z,977.409
2022-09-16T20:06:49.989Z,977.369
2022-09-16T20:08:50.260Z,977.344
2022-09-16T20:10:50.163Z,977.467
2022-09-16T20:12:50.114Z,977.497
2022-09-16T20:14:50.030Z,977.470
2022-09-16T20:16:50.592Z,977.499
2022-09-16T20:18:49.865Z,977.501
2022-09-16T20:20:50.507Z,977.541
2022-09-16T20:22:50.410Z,977.513
2022-09-16T20:25:22.263Z,977.556
2022-09-16T20:26:50.759Z,977.556
2022-09-16T20:28:50.674Z,977.537
2022-09-16T20:30:50.440Z,977.508
2022-09-16T20:32:50.341Z,977.511
2022-09-16T20:34:50.575Z,977.535
2022-09-16T20:36:50.665Z,977.531
2022-09-16T20:38:50.636Z,977.542
2022-09-16T20:40:50.617Z,977.565
2022-09-16T20:42:50.598Z,977.610
2022-09-16T20:44:50.533Z,977.627
2022-09-16T20:46:50.584Z,977.656
2022-09-16T20:48:50.409Z,977.632
2022-09-16T20:50:50.356Z,977.587
2022-09-16T20:52:50.239Z,977.594
2022-09-16T20:54:49.949Z,977.670
2022-09-16T20:56:50.201Z,977.725
2022-09-16T20:58:50.002Z,977.744
2022-09-16T21:00:50.942Z,977.667
2022-09-16T21:02:49.993Z,977.719
2022-09-16T21:04:50.576Z,977.700
2022-09-16T21:06:49.986Z,977.720
2022-09-16T21:08:50.061Z,977.777
2022-09-16T21:10:49.991Z,977.789
2022-09-16T21:12:49.980Z,977.865
2022-09-16T21:14:50.717Z,977.885
2022-09-16T21:16:50.125Z,977.905
2022-09-16T21:18:50.096Z,977.930
2022-09-16T21:20:49.873Z,977.960
2022-09-16T21:22:50.591Z,977.933
2022-09-16T21:24:50.338Z,977.901
2022-09-16T21:26:50.353Z,977.916
2022-09-16T21:28:50.134Z,977.897
2022-09-16T21:30:50.158Z,977.909
2022-09-16T21:32:50.102Z,977.917
2022-09-16T21:34:50.590Z,977.957
2022-09-16T21:36:50.722Z,977.903
2022-09-16T21:38:50.754Z,977.931
2022-09-16T21:40:50.616Z,977.933
2022-09-16T21:42:50.427Z,977.948
2022-09-16T21:44:50.279Z,977.893
2022-09-16T21:46:50.789Z,977.853
2022-09-16T21:48:50.184Z,977.918
2022-09-16T21:50:50.192Z,977.951
2022-09-16T21:52:50.011Z,977.973
2022-09-16T21:54:50.778Z,978.050
2022-09-16T21:56:49.945Z,977.994
2022-09-16T21:58:49.881Z,978.038
2022-09-16T22:00:50.971Z,978.108
2022-09-16T22:02:50.221Z,978.108
2022-09-16T22:04:50.060Z,978.135
2022-09-16T22:06:50.200Z,978.080
2022-09-16T22:08:50.217Z,978.052
2022-09-16T22:10:50.021Z,978.063
2022-09-16T22:12:50.049Z,978.060
2022-09-16T22:14:50.704Z,978.036
2022-09-16T22:16:50.017Z,978.090
2022-09-16T22:18:49.823Z,978.109
2022-09-16T22:20:50.610Z,978.066
2022-09-16T22:22:50.394Z,978.110
2022-09-16T22:24:50.133Z,978.089
2022-09-16T22:26:50.502Z,978.076
2022-09-16T22:28:50.435Z,978.094
2022-09-16T22:30:50.299Z,978.093
2022-09-16T22:32:50.155Z,978.072
2022-09-16T22:34:50.688Z,978.078
2022-09-16T22:36:49.833Z,978.072
2022-09-16T22:38:50.628Z,978.070
2022-09-16T22:40:50.668Z,978.046
2022-09-16T22:42:50.671Z,977.998
2022-09-16T22:44:50.617Z,978.026
2022-09-16T22:46:51.018Z,978.021
2022-09-16T22:48:50.391Z,978.058
2022-09-16T22:50:50.232Z,978.067
2022-09-16T22:52:49.929Z,978.060
2022-09-16T22:54:49.931Z,978.111
2022-09-16T22:56:50.208Z,978.126
2022-09-16T22:58:50.024Z,978.071
2022-09-16T23:00:50.153Z,978.126
2022-09-16T23:02:50.114Z,978.152
2022-09-16T23:04:50.632Z,978.146
2022-09-16T23:06:50.660Z,978.150
2022-09-16T23:08:50.442Z,978.147
2022-09-16T23:10:50.297Z,978.165
2022-09-16T23:12:50.254Z,978.178
2022-09-16T23:14:49.974Z,978.141
2022-09-16T23:16:50.196Z,978.141
2022-09-16T23:18:50.083Z,978.138
2022-09-16T23:20:49.976Z,978.135
2022-09-16T23:22:49.891Z,978.153
2022-09-16T23:24:50.672Z,978.123
2022-09-16T23:26:50.650Z,978.158
2022-09-16T23:28:50.433Z,978.101
2022-09-16T23:30:50.529Z,978.045
2022-09-16T23:32:50.449Z,978.091
2022-09-16T23:34:50.708Z,978.056
2022-09-16T23:36:50.157Z,978.146
2022-09-16T23:38:50.016Z,978.085
2022-09-16T23:40:50.749Z,978.105
2022-09-16T23:42:50.651Z,978.127
2022-09-16T23:44:50.532Z,978.110
2022-09-16T23:46:51.000Z,978.160
2022-09-16T23:48:50.131Z,978.158
2022-09-16T23:50:50.068Z,978.178
2022-09-16T23:52:49.985Z,978.176
2022-09-16T23:54:49.808Z,978.176
2022-09-16T23:56:49.913Z,978.153
2022-09-16T23:58:50.638Z,978.154
